Terminal Aerodrome Forecast
Issued by NWS

Home | Current Version | Previous Version | Text Only | Print | Product List | Glossary On
Versions: 1 2 3 4 5 6 7 8 9 10 11 12 13 14 15 16 17 18 19
000
FTUS44 KHGX 240522
TAFCXO
TAF
KCXO 240522Z 2406/2506 14007KT P6SM SCT010
     FM240900 19003KT 6SM BR BKN010
      TEMPO 2410/2412 4SM BR BKN007
     FM241400 23004KT P6SM SCT015
     FM242000 31008G18KT P6SM SKC=

USA.gov is the U.S. government's official web portal to all federal, state and local government web resources and services.